Terminal Aerodrome Forecast
Issued by NWS Twin Cities, MN

Home | Current Version | Previous Version | Graphics & Text | Print | Product List | Glossary On
Versions: 1 2 3 4 5 6 7 8 9 10 11 12 13 14 15
000
FTUS43 KMPX 230500
TAFSTC
TAF
KSTC 230520Z 2306/2406 08012KT 3SM -RASN BR OVC006
     FM230900 05013KT 4SM BR OVC007
     FM231400 03014KT 2SM -SN BR OVC005
      TEMPO 2316/2318 1SM -SN BR VV003
     FM231900 35012KT 4SM -SN OVC006=

USA.gov is the U.S. government's official web portal to all federal, state and local government web resources and services.